Time;durP1;ratioP1;P1;durP2;ratioP2;P2;SDS_P1;SDS_P2;PMS_P1;PMS_P2;Temp;Humidity;BMP_temperature;BMP_pressure;BME280_temperature;BME280_humidity;BME280_pressure;Samples;Min_cycle;Max_cycle;Signal;HPM_P1;HPM_P2
2022/09/13 00:00:32;;;;;;;;;;;16.50;97.80;;;;;;4980877;28;19965;-79
2022/09/13 00:02:59;;;;;;;;;;;16.40;97.70;;;;;;5002647;28;20024;-79
2022/09/13 00:05:26;;;;;;;;;;;16.40;97.70;;;;;;4997405;28;20206;-79
2022/09/13 00:07:53;;;;;;;;;;;16.30;97.60;;;;;;4996326;28;19930;-79
2022/09/13 00:10:19;;;;;;;;;;;16.30;97.70;;;;;;4995103;28;19930;-80
2022/09/13 00:12:47;;;;;;;;;;;16.30;97.70;;;;;;4999757;28;19980;-79
2022/09/13 00:15:15;;;;;;;;;;;16.30;97.70;;;;;;4973953;28;20370;-79
2022/09/13 00:17:42;;;;;;;;;;;16.30;97.70;;;;;;4989986;28;20308;-80
2022/09/13 00:20:12;;;;;;;;;;;16.30;98.00;;;;;;4981974;28;19983;-79
2022/09/13 00:22:39;;;;;;;;;;;16.20;97.70;;;;;;5001476;28;19925;-80
2022/09/13 00:25:07;;;;;;;;;;;16.20;97.70;;;;;;4994086;28;19948;-80
2022/09/13 00:27:34;;;;;;;;;;;16.20;97.70;;;;;;4995790;28;19930;-80
2022/09/13 00:30:01;;;;;;;;;;;16.20;97.80;;;;;;5003421;28;20016;-79
2022/09/13 00:32:29;;;;;;;;;;;16.10;97.70;;;;;;4991951;28;19930;-80
2022/09/13 00:34:56;;;;;;;;;;;16.10;97.70;;;;;;4999700;28;20205;-79
2022/09/13 00:37:22;;;;;;;;;;;16.10;97.70;;;;;;4981159;28;19934;-80
2022/09/13 00:39:49;;;;;;;;;;;16.10;97.80;;;;;;4997793;28;19929;-79
2022/09/13 00:42:16;;;;;;;;;;;16.10;97.80;;;;;;4998111;28;19933;-80
2022/09/13 00:44:55;;;;;;;;;;;16.10;97.80;;;;;;4999754;28;19925;-79
2022/09/13 00:47:23;;;;;;;;;;;16.00;97.70;;;;;;4999988;28;20012;-79
2022/09/13 00:49:53;;;;;;;;;;;16.00;97.70;;;;;;4996068;28;19972;-79
2022/09/13 00:52:20;;;;;;;;;;;16.00;97.70;;;;;;4996047;28;19972;-80
2022/09/13 00:54:49;;;;;;;;;;;16.00;97.80;;;;;;4999378;28;19979;-81
2022/09/13 00:57:17;;;;;;;;;;;16.00;97.70;;;;;;4996132;28;19926;-78
2022/09/13 00:59:47;;;;;;;;;;;15.90;97.70;;;;;;4997877;28;20570;-80
2022/09/13 01:02:14;;;;;;;;;;;15.90;97.80;;;;;;4982696;28;19937;-79
2022/09/13 01:04:41;;;;;;;;;;;15.90;97.80;;;;;;4995105;28;19926;-80
2022/09/13 01:07:11;;;;;;;;;;;15.90;97.80;;;;;;4994519;28;20001;-79
2022/09/13 01:09:41;;;;;;;;;;;15.80;97.80;;;;;;5002075;28;19928;-79
2022/09/13 01:12:13;;;;;;;;;;;15.80;97.80;;;;;;5000305;28;19940;-79
2022/09/13 01:14:40;;;;;;;;;;;15.80;97.80;;;;;;4993919;28;19930;-80
2022/09/13 01:17:07;;;;;;;;;;;15.80;97.80;;;;;;4998923;28;20100;-79
2022/09/13 01:19:34;;;;;;;;;;;15.80;97.80;;;;;;4998404;28;19937;-80
2022/09/13 01:22:21;;;;;;;;;;;15.80;97.80;;;;;;4994178;28;20302;-79
2022/09/13 01:24:59;;;;;;;;;;;15.70;97.80;;;;;;4996840;28;19933;-81
2022/09/13 01:27:47;;;;;;;;;;;15.70;97.90;;;;;;5000057;28;20289;-81
2022/09/13 01:30:19;;;;;;;;;;;15.70;97.80;;;;;;4989918;28;20180;-82
2022/09/13 01:32:56;;;;;;;;;;;15.70;97.80;;;;;;4995216;28;19925;-82
2022/09/13 01:35:28;;;;;;;;;;;15.70;97.90;;;;;;4983716;28;19926;-82
2022/09/13 01:37:57;;;;;;;;;;;15.70;97.90;;;;;;4995077;28;19933;-79
2022/09/13 01:40:31;;;;;;;;;;;15.60;97.80;;;;;;4998419;28;19940;-79
2022/09/13 01:43:14;;;;;;;;;;;15.60;97.80;;;;;;4983110;28;19941;-81
2022/09/13 01:45:48;;;;;;;;;;;15.60;97.90;;;;;;4998007;28;20351;-82
2022/09/13 01:48:18;;;;;;;;;;;15.60;97.80;;;;;;4982750;28;19984;-81
2022/09/13 01:50:47;;;;;;;;;;;15.60;97.90;;;;;;4994402;28;20339;-81
2022/09/13 01:53:18;;;;;;;;;;;15.60;97.90;;;;;;4996914;28;20420;-82
2022/09/13 01:55:48;;;;;;;;;;;15.50;97.80;;;;;;4995826;28;20024;-81
2022/09/13 01:58:19;;;;;;;;;;;15.50;97.90;;;;;;4994790;28;20412;-82
2022/09/13 02:00:52;;;;;;;;;;;15.50;97.80;;;;;;4994145;28;20232;-80
2022/09/13 02:03:21;;;;;;;;;;;15.50;97.90;;;;;;4996767;28;19976;-82
2022/09/13 02:05:52;;;;;;;;;;;15.50;97.90;;;;;;4997824;28;20637;-81
2022/09/13 02:08:20;;;;;;;;;;;15.50;97.90;;;;;;4997012;28;19933;-82
2022/09/13 02:10:48;;;;;;;;;;;15.40;97.80;;;;;;5000234;28;19933;-82
2022/09/13 02:13:17;;;;;;;;;;;15.40;97.80;;;;;;4998488;28;20011;-81
2022/09/13 02:15:46;;;;;;;;;;;15.40;97.80;;;;;;4996998;28;19984;-82
2022/09/13 02:18:16;;;;;;;;;;;15.40;97.80;;;;;;5001259;28;20004;-82
2022/09/13 02:20:44;;;;;;;;;;;15.30;97.90;;;;;;4994704;28;19932;-81
2022/09/13 02:23:13;;;;;;;;;;;15.20;97.60;;;;;;4998038;28;19996;-82
2022/09/13 02:25:40;;;;;;;;;;;15.20;97.80;;;;;;5000256;28;19933;-82
2022/09/13 02:28:09;;;;;;;;;;;15.20;97.80;;;;;;5001368;28;19925;-81
2022/09/13 02:30:39;;;;;;;;;;;15.20;97.70;;;;;;5001851;28;19968;-81
2022/09/13 02:33:10;;;;;;;;;;;15.20;97.70;;;;;;4981464;28;20903;-81
2022/09/13 02:35:41;;;;;;;;;;;15.10;97.80;;;;;;4997050;28;19976;-82
2022/09/13 02:38:09;;;;;;;;;;;15.10;97.70;;;;;;4983475;28;20554;-82
2022/09/13 02:40:39;;;;;;;;;;;15.00;97.70;;;;;;4997459;28;20012;-81
2022/09/13 02:43:08;;;;;;;;;;;15.00;97.70;;;;;;5001304;28;19937;-81
2022/09/13 02:45:41;;;;;;;;;;;15.00;97.70;;;;;;5000965;28;19990;-82
2022/09/13 02:48:10;;;;;;;;;;;15.00;97.80;;;;;;5003209;28;20018;-82
2022/09/13 02:50:45;;;;;;;;;;;15.00;97.80;;;;;;4998780;28;19926;-82
2022/09/13 02:53:14;;;;;;;;;;;15.00;97.80;;;;;;4999371;28;19925;-82
2022/09/13 02:55:45;;;;;;;;;;;14.90;97.80;;;;;;4988810;28;20327;-82
2022/09/13 02:58:14;;;;;;;;;;;14.90;97.90;;;;;;4997856;28;21876;-82
2022/09/13 03:00:41;;;;;;;;;;;14.90;97.90;;;;;;4994925;28;19991;-82
2022/09/13 03:03:09;;;;;;;;;;;14.90;97.90;;;;;;5001944;28;19955;-81
2022/09/13 03:05:36;;;;;;;;;;;14.90;97.90;;;;;;4998445;28;20020;-81
2022/09/13 03:08:05;;;;;;;;;;;14.90;97.90;;;;;;5000297;28;20384;-82
2022/09/13 03:10:36;;;;;;;;;;;14.80;97.90;;;;;;5001497;28;19937;-82
2022/09/13 03:13:15;;;;;;;;;;;14.80;98.00;;;;;;4998308;28;19948;-82
2022/09/13 03:15:49;;;;;;;;;;;14.70;98.10;;;;;;4998825;28;19973;-81
2022/09/13 03:18:22;;;;;;;;;;;14.70;98.20;;;;;;4988616;28;19926;-82
2022/09/13 03:20:54;;;;;;;;;;;14.60;98.20;;;;;;4997078;28;20364;-82
2022/09/13 03:23:30;;;;;;;;;;;14.60;98.30;;;;;;5000871;28;20013;-81
2022/09/13 03:26:08;;;;;;;;;;;14.60;98.30;;;;;;4998762;28;19936;-82
2022/09/13 03:28:38;;;;;;;;;;;14.60;98.30;;;;;;5002485;28;20025;-82
2022/09/13 03:31:07;;;;;;;;;;;14.60;98.30;;;;;;4995693;28;20407;-81
2022/09/13 03:33:40;;;;;;;;;;;14.60;98.30;;;;;;5001824;28;19944;-81
2022/09/13 03:36:11;;;;;;;;;;;14.50;98.30;;;;;;4975130;28;20461;-81
2022/09/13 03:38:44;;;;;;;;;;;14.50;98.30;;;;;;4995711;28;20534;-81
2022/09/13 03:41:13;;;;;;;;;;;14.50;98.40;;;;;;4975560;28;19926;-82
2022/09/13 03:43:43;;;;;;;;;;;14.50;98.40;;;;;;5001821;28;19929;-82
2022/09/13 03:46:12;;;;;;;;;;;14.50;98.50;;;;;;4993380;28;19956;-80
2022/09/13 03:48:41;;;;;;;;;;;14.50;98.50;;;;;;4994999;28;19930;-83
2022/09/13 03:51:11;;;;;;;;;;;14.40;98.50;;;;;;4998935;28;19996;-82
2022/09/13 03:53:42;;;;;;;;;;;14.40;98.50;;;;;;5002410;28;20455;-81
2022/09/13 03:56:12;;;;;;;;;;;14.40;98.60;;;;;;4999746;28;20027;-82
2022/09/13 03:58:40;;;;;;;;;;;14.30;98.50;;;;;;4992753;28;21880;-81
2022/09/13 04:01:07;;;;;;;;;;;14.30;98.50;;;;;;5006216;23;19933;-72
2022/09/13 04:03:34;;;;;;;;;;;14.30;98.60;;;;;;5005004;28;19933;-74
2022/09/13 04:06:01;;;;;;;;;;;14.30;98.60;;;;;;5003500;28;20307;-73
2022/09/13 04:08:28;;;;;;;;;;;14.30;98.60;;;;;;5010415;28;19967;-74
2022/09/13 04:10:57;;;;;;;;;;;14.30;98.60;;;;;;4999278;28;19928;-74
2022/09/13 04:13:24;;;;;;;;;;;14.30;98.60;;;;;;5006979;28;19933;-75
2022/09/13 04:15:50;;;;;;;;;;;14.30;98.70;;;;;;5015612;28;19933;-74
2022/09/13 04:18:17;;;;;;;;;;;14.30;98.70;;;;;;5014118;28;20591;-73
2022/09/13 04:20:44;;;;;;;;;;;14.30;98.70;;;;;;5016079;28;20035;-76
2022/09/13 04:23:13;;;;;;;;;;;14.20;98.60;;;;;;4995591;28;20786;-73
2022/09/13 04:25:40;;;;;;;;;;;14.20;98.70;;;;;;5017530;28;20695;-75
2022/09/13 04:28:08;;;;;;;;;;;14.20;98.70;;;;;;5015454;28;20312;-73
2022/09/13 04:30:35;;;;;;;;;;;14.20;98.70;;;;;;5015508;28;19979;-73
2022/09/13 04:33:02;;;;;;;;;;;14.20;98.80;;;;;;5004287;28;19979;-73
2022/09/13 04:35:28;;;;;;;;;;;14.20;98.80;;;;;;5024348;28;19979;-73
2022/09/13 04:37:59;;;;;;;;;;;14.20;98.80;;;;;;5011905;28;19925;-73
2022/09/13 04:40:25;;;;;;;;;;;14.20;98.80;;;;;;5016288;28;19947;-73
2022/09/13 04:42:52;;;;;;;;;;;14.10;98.80;;;;;;5022488;28;20307;-74
2022/09/13 04:45:21;;;;;;;;;;;14.10;98.80;;;;;;5006238;28;19996;-74
2022/09/13 04:47:50;;;;;;;;;;;14.10;98.80;;;;;;5025568;28;20229;-74
2022/09/13 04:50:17;;;;;;;;;;;14.10;98.90;;;;;;5015051;28;19932;-73
2022/09/13 04:52:44;;;;;;;;;;;14.10;98.90;;;;;;5024253;28;19960;-74
2022/09/13 04:55:11;;;;;;;;;;;14.10;98.90;;;;;;5017818;28;20451;-74
2022/09/13 04:57:38;;;;;;;;;;;14.10;98.90;;;;;;5023606;28;20355;-72
2022/09/13 05:00:05;;;;;;;;;;;14.10;98.90;;;;;;5025502;28;19925;-74
2022/09/13 05:02:33;;;;;;;;;;;14.10;98.90;;;;;;5015425;28;19925;-73
2022/09/13 05:05:04;;;;;;;;;;;14.10;98.90;;;;;;4993516;28;20019;-74
2022/09/13 05:07:30;;;;;;;;;;;14.10;98.90;;;;;;5011064;28;20391;-74
2022/09/13 05:09:57;;;;;;;;;;;14.10;98.90;;;;;;5011403;28;20405;-76
2022/09/13 05:12:24;;;;;;;;;;;14.10;98.90;;;;;;5008417;28;20047;-74
2022/09/13 05:14:51;;;;;;;;;;;14.00;98.90;;;;;;5008021;28;20773;-74
2022/09/13 05:17:17;;;;;;;;;;;14.00;98.70;;;;;;5021915;28;19925;-74
2022/09/13 05:19:46;;;;;;;;;;;14.00;98.70;;;;;;5021850;28;19956;-73
2022/09/13 05:22:13;;;;;;;;;;;13.90;98.80;;;;;;5024540;28;19929;-73
2022/09/13 05:24:40;;;;;;;;;;;13.90;99.00;;;;;;5015247;28;19929;-75
2022/09/13 05:27:07;;;;;;;;;;;13.90;99.00;;;;;;5009562;28;20269;-77
2022/09/13 05:29:34;;;;;;;;;;;13.90;99.10;;;;;;5024215;28;19956;-74
2022/09/13 05:32:01;;;;;;;;;;;13.90;99.20;;;;;;5012054;28;20387;-72
2022/09/13 05:34:28;;;;;;;;;;;13.90;99.10;;;;;;5016000;28;19936;-75
2022/09/13 05:36:56;;;;;;;;;;;13.90;99.10;;;;;;5023044;28;19933;-74
2022/09/13 05:39:23;;;;;;;;;;;13.80;99.10;;;;;;4994228;28;20374;-76
2022/09/13 05:41:50;;;;;;;;;;;13.80;99.20;;;;;;4995724;28;20518;-74
2022/09/13 05:44:17;;;;;;;;;;;13.80;99.20;;;;;;5025210;28;19925;-73
2022/09/13 05:46:46;;;;;;;;;;;13.80;99.20;;;;;;5027606;28;19968;-74
2022/09/13 05:49:13;;;;;;;;;;;13.70;99.90;;;;;;5027938;28;19931;-74
2022/09/13 05:54:11;;;;;;;;;;;13.80;99.30;;;;;;4992321;28;20335;-71
2022/09/13 05:56:37;;;;;;;;;;;13.80;99.30;;;;;;4993520;28;20461;-72
2022/09/13 05:59:04;;;;;;;;;;;13.80;99.30;;;;;;4979197;28;20475;-72
2022/09/13 06:01:31;;;;;;;;;;;13.80;99.40;;;;;;4958448;28;19936;-72
2022/09/13 06:03:58;;;;;;;;;;;13.80;99.40;;;;;;4973572;28;20371;-72
2022/09/13 06:06:25;;;;;;;;;;;13.80;99.40;;;;;;4970943;28;20325;-71
2022/09/13 06:08:52;;;;;;;;;;;13.70;99.40;;;;;;4969080;28;19926;-72
2022/09/13 06:11:21;;;;;;;;;;;13.80;99.50;;;;;;4973959;28;19969;-72
2022/09/13 06:13:47;;;;;;;;;;;13.70;99.40;;;;;;4970663;28;20008;-72
2022/09/13 06:16:16;;;;;;;;;;;13.70;99.40;;;;;;4972993;28;19969;-71
2022/09/13 06:18:43;;;;;;;;;;;13.70;99.50;;;;;;4970695;28;19940;-72
2022/09/13 06:21:10;;;;;;;;;;;13.70;99.50;;;;;;4970708;28;19934;-72
2022/09/13 06:23:38;;;;;;;;;;;13.70;99.60;;;;;;4969162;28;20032;-72
2022/09/13 06:26:05;;;;;;;;;;;13.70;99.60;;;;;;4973824;28;19930;-72
2022/09/13 06:28:33;;;;;;;;;;;13.70;99.60;;;;;;4969471;28;19926;-72
2022/09/13 06:31:01;;;;;;;;;;;13.70;99.60;;;;;;4970658;28;19949;-72
2022/09/13 06:33:28;;;;;;;;;;;13.70;99.60;;;;;;4972260;28;20004;-71
2022/09/13 06:35:55;;;;;;;;;;;13.70;99.70;;;;;;4974049;28;19949;-72
2022/09/13 06:38:21;;;;;;;;;;;13.70;99.70;;;;;;4957279;28;19930;-72
2022/09/13 06:40:48;;;;;;;;;;;13.70;99.70;;;;;;4970081;28;19926;-72
2022/09/13 06:43:15;;;;;;;;;;;13.70;99.70;;;;;;4968421;28;19934;-72
2022/09/13 06:45:43;;;;;;;;;;;13.70;99.70;;;;;;4971735;28;20416;-72
2022/09/13 06:48:10;;;;;;;;;;;13.70;99.70;;;;;;4968161;28;20300;-71
2022/09/13 06:50:37;;;;;;;;;;;13.70;99.70;;;;;;4968208;28;20009;-73
2022/09/13 06:53:04;;;;;;;;;;;13.60;99.70;;;;;;4969375;28;19985;-72
2022/09/13 06:55:31;;;;;;;;;;;13.60;99.80;;;;;;4972364;28;19958;-73
2022/09/13 06:57:58;;;;;;;;;;;13.70;99.90;;;;;;4970383;28;19957;-72
2022/09/13 07:00:25;;;;;;;;;;;13.70;99.90;;;;;;4968906;28;20352;-72
2022/09/13 07:02:53;;;;;;;;;;;13.60;99.90;;;;;;4970732;28;19988;-73
2022/09/13 07:05:20;;;;;;;;;;;13.60;99.90;;;;;;4967859;28;20376;-72
2022/09/13 07:07:47;;;;;;;;;;;13.70;99.90;;;;;;4971879;28;19957;-73
2022/09/13 07:10:14;;;;;;;;;;;13.60;99.90;;;;;;4968895;28;19972;-72
2022/09/13 07:12:41;;;;;;;;;;;13.60;99.90;;;;;;4969097;28;19930;-71
2022/09/13 07:15:08;;;;;;;;;;;13.60;99.90;;;;;;4969446;28;20013;-73
2022/09/13 07:17:35;;;;;;;;;;;13.60;99.90;;;;;;4967645;28;19977;-71
2022/09/13 07:20:06;;;;;;;;;;;13.60;99.90;;;;;;4964156;28;20299;-72
2022/09/13 07:22:33;;;;;;;;;;;13.60;99.90;;;;;;4970134;28;19929;-73
2022/09/13 07:25:00;;;;;;;;;;;13.70;99.90;;;;;;4970820;28;20384;-72
2022/09/13 07:27:27;;;;;;;;;;;13.60;99.90;;;;;;4967106;28;19934;-72
2022/09/13 07:29:54;;;;;;;;;;;13.70;99.90;;;;;;4972433;28;19936;-72
2022/09/13 07:32:21;;;;;;;;;;;13.70;99.90;;;;;;4970002;28;19934;-73
2022/09/13 07:34:48;;;;;;;;;;;13.70;99.90;;;;;;4971221;28;20380;-73
2022/09/13 07:37:16;;;;;;;;;;;13.70;99.90;;;;;;4964197;28;19926;-72
2022/09/13 07:39:43;;;;;;;;;;;13.70;99.90;;;;;;4970941;28;19926;-72
2022/09/13 07:42:10;;;;;;;;;;;13.70;99.90;;;;;;4968920;28;19926;-72
2022/09/13 07:44:37;;;;;;;;;;;13.70;99.90;;;;;;4965679;28;19934;-72
2022/09/13 07:47:04;;;;;;;;;;;13.70;99.90;;;;;;4959692;28;20340;-72
2022/09/13 07:49:31;;;;;;;;;;;13.70;99.90;;;;;;4969860;28;20024;-72
2022/09/13 07:51:58;;;;;;;;;;;13.80;99.90;;;;;;4970148;28;20393;-70
2022/09/13 07:54:26;;;;;;;;;;;13.80;99.90;;;;;;4950547;28;20332;-72
2022/09/13 07:56:53;;;;;;;;;;;13.80;99.90;;;;;;4969428;28;19926;-73
2022/09/13 07:59:19;;;;;;;;;;;13.80;99.90;;;;;;4965636;28;19934;-72
2022/09/13 08:01:47;;;;;;;;;;;13.80;99.90;;;;;;4969495;28;20228;-73
2022/09/13 08:04:16;;;;;;;;;;;13.80;99.90;;;;;;4967487;28;20009;-72
2022/09/13 08:06:43;;;;;;;;;;;13.90;99.90;;;;;;4974544;28;19933;-72
2022/09/13 08:09:10;;;;;;;;;;;13.90;99.90;;;;;;4968295;28;19927;-72
2022/09/13 08:11:39;;;;;;;;;;;13.90;99.90;;;;;;4966615;28;19926;-72
2022/09/13 08:14:07;;;;;;;;;;;13.90;99.90;;;;;;4969228;28;19937;-72
2022/09/13 08:16:33;;;;;;;;;;;13.90;99.90;;;;;;4970059;28;19926;-72
2022/09/13 08:19:01;;;;;;;;;;;14.00;99.90;;;;;;4957493;28;20043;-73
2022/09/13 08:21:31;;;;;;;;;;;14.00;99.90;;;;;;4966340;28;20369;-72
2022/09/13 08:23:59;;;;;;;;;;;14.00;99.90;;;;;;4966437;28;19927;-72
2022/09/13 08:26:26;;;;;;;;;;;14.00;99.90;;;;;;4968890;28;19930;-72
2022/09/13 08:28:57;;;;;;;;;;;14.00;99.90;;;;;;4971440;28;19961;-73
2022/09/13 08:31:24;;;;;;;;;;;14.10;99.90;;;;;;4966249;28;19934;-72
2022/09/13 08:33:52;;;;;;;;;;;14.10;99.90;;;;;;4943102;28;19973;-73
2022/09/13 08:36:19;;;;;;;;;;;14.10;99.90;;;;;;4968087;28;19926;-72
2022/09/13 08:38:46;;;;;;;;;;;14.10;99.90;;;;;;4965766;28;19936;-71
2022/09/13 08:41:31;;;;;;;;;;;14.10;99.90;;;;;;4968815;28;20307;-73
2022/09/13 08:44:02;;;;;;;;;;;14.20;99.90;;;;;;4969055;28;19930;-72
2022/09/13 08:46:32;;;;;;;;;;;14.20;99.90;;;;;;4969308;28;19930;-73
2022/09/13 08:49:00;;;;;;;;;;;14.20;99.90;;;;;;4971317;28;20363;-72
2022/09/13 08:51:30;;;;;;;;;;;14.30;99.90;;;;;;4967984;28;20025;-72
2022/09/13 08:53:58;;;;;;;;;;;14.30;99.90;;;;;;4967707;28;20420;-72
2022/09/13 08:56:28;;;;;;;;;;;14.30;99.90;;;;;;4968740;28;20420;-73
2022/09/13 08:59:06;;;;;;;;;;;14.30;99.90;;;;;;4966791;28;20323;-72
2022/09/13 09:01:38;;;;;;;;;;;14.30;99.90;;;;;;4965980;28;19979;-72
2022/09/13 09:04:12;;;;;;;;;;;14.40;99.90;;;;;;4968507;28;19993;-73
2022/09/13 09:06:39;;;;;;;;;;;14.40;99.90;;;;;;4963744;28;19953;-72
2022/09/13 09:09:07;;;;;;;;;;;14.40;99.90;;;;;;4968290;28;19926;-72
2022/09/13 09:11:38;;;;;;;;;;;14.50;99.90;;;;;;4968614;28;19978;-72
2022/09/13 09:14:07;;;;;;;;;;;14.50;99.90;;;;;;4966835;28;19937;-72
2022/09/13 09:16:38;;;;;;;;;;;14.50;99.90;;;;;;4968184;28;19930;-73
2022/09/13 09:19:09;;;;;;;;;;;14.60;99.90;;;;;;4975402;28;19937;-73
2022/09/13 09:21:37;;;;;;;;;;;14.60;99.90;;;;;;4969506;28;19962;-72
2022/09/13 09:24:04;;;;;;;;;;;14.60;99.90;;;;;;4976731;28;19934;-72
2022/09/13 09:26:31;;;;;;;;;;;14.60;99.90;;;;;;4973161;28;20017;-72
2022/09/13 09:28:59;;;;;;;;;;;14.70;99.90;;;;;;4967016;28;19965;-72
2022/09/13 09:31:33;;;;;;;;;;;14.70;99.90;;;;;;4973682;28;19969;-72
2022/09/13 09:34:08;;;;;;;;;;;14.70;99.90;;;;;;4976866;28;20389;-72
2022/09/13 09:36:39;;;;;;;;;;;14.70;99.90;;;;;;4976082;28;19973;-72
2022/09/13 09:39:06;;;;;;;;;;;14.80;99.90;;;;;;4974292;28;19937;-72
2022/09/13 09:41:34;;;;;;;;;;;14.80;99.90;;;;;;4974207;28;20360;-73
2022/09/13 09:44:04;;;;;;;;;;;14.80;99.90;;;;;;4974100;28;19926;-72
2022/09/13 09:46:35;;;;;;;;;;;14.90;99.90;;;;;;4975271;28;19969;-72
2022/09/13 09:50:07;;;;;;;;;;;14.90;99.90;;;;;;4973170;28;19962;-72
2022/09/13 09:51:55;;;;;;;;;;;14.90;99.90;;;;;;4972984;28;19930;-72
2022/09/13 09:54:22;;;;;;;;;;;15.00;99.90;;;;;;4971808;28;19927;-73
2022/09/13 09:56:52;;;;;;;;;;;15.00;99.90;;;;;;4977266;28;19933;-72
2022/09/13 09:59:25;;;;;;;;;;;15.00;99.90;;;;;;4966869;28;19933;-72
2022/09/13 10:01:57;;;;;;;;;;;15.10;99.90;;;;;;4975405;28;20337;-73
2022/09/13 10:04:24;;;;;;;;;;;15.10;99.90;;;;;;4975792;28;19930;-73
2022/09/13 10:07:07;;;;;;;;;;;15.10;99.90;;;;;;4951453;28;20464;-72
2022/09/13 10:09:36;;;;;;;;;;;15.20;99.90;;;;;;4974403;28;19930;-73
2022/09/13 10:12:03;;;;;;;;;;;15.20;99.90;;;;;;4974823;28;20400;-73
2022/09/13 10:14:35;;;;;;;;;;;15.20;99.90;;;;;;4972486;28;19930;-72
2022/09/13 10:17:04;;;;;;;;;;;15.30;99.90;;;;;;4975744;28;19980;-72
2022/09/13 10:19:31;;;;;;;;;;;15.30;99.90;;;;;;4974931;28;19936;-73
2022/09/13 10:22:02;;;;;;;;;;;15.30;99.90;;;;;;4952657;28;19927;-73
2022/09/13 10:24:29;;;;;;;;;;;15.40;99.90;;;;;;4970432;28;19957;-71
2022/09/13 10:26:56;;;;;;;;;;;15.40;99.90;;;;;;4973759;28;19930;-71
2022/09/13 10:29:24;;;;;;;;;;;15.40;99.90;;;;;;4970897;28;19930;-72
2022/09/13 10:31:52;;;;;;;;;;;15.50;99.90;;;;;;4968349;28;19926;-73
2022/09/13 10:34:22;;;;;;;;;;;15.50;99.90;;;;;;4971397;28;20368;-72
2022/09/13 10:36:52;;;;;;;;;;;15.60;99.90;;;;;;4968242;28;20468;-72
2022/09/13 10:39:20;;;;;;;;;;;15.60;99.90;;;;;;4972446;28;20391;-72
2022/09/13 10:41:50;;;;;;;;;;;15.60;99.90;;;;;;4968367;28;19926;-73
2022/09/13 10:44:26;;;;;;;;;;;15.70;99.90;;;;;;4969562;28;19930;-73
2022/09/13 10:46:53;;;;;;;;;;;15.70;99.90;;;;;;4967635;28;20331;-73
2022/09/13 10:49:37;;;;;;;;;;;15.80;99.90;;;;;;4971700;28;19965;-72
2022/09/13 10:52:18;;;;;;;;;;;15.80;99.90;;;;;;4950620;28;19934;-73
2022/09/13 10:54:45;;;;;;;;;;;15.90;99.90;;;;;;4967148;28;19930;-73
2022/09/13 10:57:28;;;;;;;;;;;15.90;99.90;;;;;;4976350;28;19926;-73
2022/09/13 10:59:55;;;;;;;;;;;16.00;99.90;;;;;;4967886;28;19926;-72
2022/09/13 11:02:36;;;;;;;;;;;16.00;99.90;;;;;;4967840;28;20012;-73
2022/09/13 11:05:05;;;;;;;;;;;;;;;;;;4969004;28;19934;-73
2022/09/13 11:07:41;;;;;;;;;;;16.10;99.90;;;;;;4968658;28;19926;-73
2022/09/13 11:10:12;;;;;;;;;;;16.20;99.90;;;;;;4964333;28;19926;-71
2022/09/13 11:12:42;;;;;;;;;;;16.20;99.90;;;;;;4964152;28;20013;-72
2022/09/13 11:15:17;;;;;;;;;;;16.30;99.90;;;;;;4967116;28;20385;-72
2022/09/13 11:17:53;;;;;;;;;;;16.30;99.90;;;;;;4970482;28;19933;-73
2022/09/13 11:20:26;;;;;;;;;;;16.30;99.90;;;;;;4968840;28;19930;-73
2022/09/13 11:23:01;;;;;;;;;;;16.40;99.90;;;;;;4962950;28;20028;-74
2022/09/13 11:25:28;;;;;;;;;;;;;;;;;;4967193;28;19938;-75
2022/09/13 11:28:06;;;;;;;;;;;16.50;99.90;;;;;;4964164;28;19929;-74
2022/09/13 11:30:35;;;;;;;;;;;16.60;99.90;;;;;;5039339;22;19937;-72
2022/09/13 11:33:14;;;;;;;;;;;16.70;99.90;;;;;;4993231;23;19933;-74
2022/09/13 11:35:49;;;;;;;;;;;16.70;99.90;;;;;;4981762;28;19929;-74
2022/09/13 11:38:34;;;;;;;;;;;16.70;99.90;;;;;;4986306;28;19929;-73
2022/09/13 11:41:05;;;;;;;;;;;16.80;99.90;;;;;;4961732;28;19985;-73
2022/09/13 11:43:39;;;;;;;;;;;16.80;99.90;;;;;;4963393;28;20001;-72
2022/09/13 11:46:09;;;;;;;;;;;16.80;99.90;;;;;;4965519;28;19973;-73
2022/09/13 11:48:46;;;;;;;;;;;16.90;99.90;;;;;;4967341;28;20387;-74
2022/09/13 11:51:13;;;;;;;;;;;;;;;;;;4972951;28;20012;-71
2022/09/13 11:53:50;;;;;;;;;;;17.00;99.90;;;;;;4965181;28;19926;-73
2022/09/13 11:56:19;;;;;;;;;;;17.00;99.90;;;;;;4960276;28;20008;-72
2022/09/13 11:58:48;;;;;;;;;;;17.00;99.90;;;;;;4969499;28;20013;-74
2022/09/13 12:01:18;;;;;;;;;;;17.10;99.90;;;;;;4963401;28;20300;-73
2022/09/13 12:03:49;;;;;;;;;;;17.10;99.90;;;;;;4959647;28;19981;-74
2022/09/13 12:06:19;;;;;;;;;;;17.10;99.90;;;;;;4949162;28;20025;-73
2022/09/13 12:08:48;;;;;;;;;;;17.20;99.90;;;;;;4959339;28;19932;-73
2022/09/13 12:11:18;;;;;;;;;;;17.20;99.90;;;;;;4966006;28;20016;-73
2022/09/13 12:13:47;;;;;;;;;;;17.20;99.90;;;;;;4960238;28;19965;-73
2022/09/13 12:16:20;;;;;;;;;;;17.30;99.90;;;;;;4959649;28;19934;-71
2022/09/13 12:18:48;;;;;;;;;;;17.40;99.90;;;;;;4962841;28;19930;-73
2022/09/13 12:21:18;;;;;;;;;;;17.40;99.90;;;;;;4953532;28;19989;-73
2022/09/13 12:23:51;;;;;;;;;;;17.50;99.90;;;;;;4961129;28;19997;-73
2022/09/13 12:26:20;;;;;;;;;;;17.50;99.90;;;;;;4960022;28;19930;-72
2022/09/13 12:28:50;;;;;;;;;;;17.60;99.90;;;;;;4959025;28;19927;-72
2022/09/13 12:31:18;;;;;;;;;;;17.60;99.90;;;;;;4963063;28;19932;-72
2022/09/13 12:33:47;;;;;;;;;;;17.60;99.90;;;;;;4960913;28;19930;-72
2022/09/13 12:36:27;;;;;;;;;;;17.70;99.90;;;;;;4939644;28;19935;-71
2022/09/13 12:39:08;;;;;;;;;;;17.80;99.90;;;;;;4956827;28;19930;-73
2022/09/13 12:41:42;;;;;;;;;;;17.80;99.90;;;;;;4937536;28;19969;-71
2022/09/13 12:44:36;;;;;;;;;;;17.80;99.90;;;;;;4965389;28;19930;-73
2022/09/13 12:47:21;;;;;;;;;;;17.90;99.90;;;;;;4956350;28;20365;-72
2022/09/13 12:50:06;;;;;;;;;;;18.00;99.90;;;;;;4958322;28;19930;-72
2022/09/13 12:52:38;;;;;;;;;;;18.10;99.90;;;;;;4964282;28;19926;-73
2022/09/13 12:55:26;;;;;;;;;;;18.10;99.90;;;;;;4957968;28;20479;-72
2022/09/13 12:57:55;;;;;;;;;;;18.20;99.90;;;;;;4957864;28;19934;-73
2022/09/13 13:00:27;;;;;;;;;;;18.20;99.90;;;;;;4957890;28;19926;-71
2022/09/13 13:03:00;;;;;;;;;;;18.30;99.90;;;;;;4960227;28;20381;-73
2022/09/13 13:05:29;;;;;;;;;;;18.30;99.90;;;;;;4957788;28;20409;-73
2022/09/13 13:07:58;;;;;;;;;;;18.30;99.90;;;;;;4962711;28;19933;-72
2022/09/13 13:10:29;;;;;;;;;;;18.40;99.90;;;;;;4957515;28;19926;-73
2022/09/13 13:12:57;;;;;;;;;;;18.50;99.90;;;;;;4968422;28;19926;-72
2022/09/13 13:15:43;;;;;;;;;;;18.50;99.90;;;;;;4957299;28;19938;-71
2022/09/13 13:18:28;;;;;;;;;;;18.60;99.90;;;;;;4966862;28;20013;-72
2022/09/13 13:21:10;;;;;;;;;;;18.60;99.90;;;;;;4960529;28;19938;-72
2022/09/13 13:23:40;;;;;;;;;;;18.70;99.90;;;;;;4942434;28;19932;-72
2022/09/13 13:26:12;;;;;;;;;;;18.70;99.90;;;;;;4957753;28;19927;-73
2022/09/13 13:28:50;;;;;;;;;;;18.80;99.90;;;;;;4940830;28;20377;-74
2022/09/13 13:31:37;;;;;;;;;;;18.80;99.90;;;;;;4957766;28;20077;-73
2022/09/13 13:34:24;;;;;;;;;;;18.80;99.90;;;;;;4956091;28;19930;-72
2022/09/13 13:36:53;;;;;;;;;;;18.90;99.90;;;;;;4963282;28;19938;-73
2022/09/13 13:39:33;;;;;;;;;;;19.00;99.90;;;;;;4955964;28;19926;-71
2022/09/13 13:42:02;;;;;;;;;;;19.00;99.90;;;;;;4950694;28;19970;-71
2022/09/13 13:44:56;;;;;;;;;;;19.00;99.90;;;;;;4951461;28;20393;-73
2022/09/13 13:47:42;;;;;;;;;;;19.10;99.90;;;;;;4965122;28;19981;-74
2022/09/13 13:50:14;;;;;;;;;;;19.10;99.90;;;;;;4955194;28;19930;-75
2022/09/13 13:52:51;;;;;;;;;;;19.20;99.90;;;;;;4950526;28;20407;-73
2022/09/13 13:55:18;;;;;;;;;;;;;;;;;;4957106;28;19949;-73
2022/09/13 13:57:51;;;;;;;;;;;19.20;99.90;;;;;;4950944;28;19926;-73
2022/09/13 14:00:21;;;;;;;;;;;19.30;99.90;;;;;;4958551;28;20385;-73
2022/09/13 14:02:53;;;;;;;;;;;19.30;99.90;;;;;;4958631;28;19926;-74
2022/09/13 14:05:22;;;;;;;;;;;19.40;99.90;;;;;;4935513;28;20322;-74
2022/09/13 14:07:58;;;;;;;;;;;19.40;99.90;;;;;;4955858;28;20415;-73
2022/09/13 14:10:28;;;;;;;;;;;19.40;99.90;;;;;;4963948;28;19935;-71
2022/09/13 14:13:05;;;;;;;;;;;19.50;99.90;;;;;;4953852;28;19938;-73
2022/09/13 14:15:39;;;;;;;;;;;19.50;99.90;;;;;;4955742;28;21591;-73
2022/09/13 14:18:14;;;;;;;;;;;19.50;99.90;;;;;;4960269;28;19926;-72
2022/09/13 14:20:56;;;;;;;;;;;19.60;99.90;;;;;;4961399;28;20046;-74
2022/09/13 14:23:22;;;;;;;;;;;19.60;99.90;;;;;;4961687;28;20001;-73
2022/09/13 14:25:53;;;;;;;;;;;19.70;99.90;;;;;;4963168;28;20029;-71
2022/09/13 14:28:22;;;;;;;;;;;19.70;99.90;;;;;;4957499;28;19961;-72
2022/09/13 14:30:52;;;;;;;;;;;19.70;99.90;;;;;;4935146;28;19933;-70
2022/09/13 14:33:22;;;;;;;;;;;19.80;99.90;;;;;;4966968;28;19930;-73
2022/09/13 14:35:57;;;;;;;;;;;19.80;99.90;;;;;;4967332;28;19936;-73
2022/09/13 14:38:25;;;;;;;;;;;19.80;99.90;;;;;;4955222;28;19926;-73